Time;durP1;ratioP1;P1;durP2;ratioP2;P2;SDS_P1;SDS_P2;PMS_P1;PMS_P2;Temp;Humidity;BMP_temperature;BMP_pressure;BME280_temperature;BME280_humidity;BME280_pressure;Samples;Min_cycle;Max_cycle;Signal;HPM_P1;HPM_P2
2022/08/12 00:43:36;;;;;;;5.53;4.28;;;;;;;23.29;54.96;102095.94;5003377;28;20055;-52
2022/08/12 00:48:48;;;;;;;7.03;4.13;;;;;;;23.23;55.02;102099.59;4995086;28;20072;-54
2022/08/12 00:51:14;;;;;;;7.30;4.50;;;;;;;23.19;54.75;102103.22;4998345;28;20052;-54
2022/08/12 00:53:40;;;;;;;6.28;3.90;;;;;;;23.22;54.51;102100.50;4988574;28;22193;-51
2022/08/12 00:56:06;;;;;;;12.75;4.20;;;;;;;23.06;56.00;102091.94;4992394;28;20025;-50
2022/08/12 00:58:33;;;;;;;6.68;4.90;;;;;;;22.90;56.61;102090.47;5006059;28;20515;-50
2022/08/12 01:01:06;;;;;;;6.80;4.75;;;;;;;22.89;55.86;102098.47;5008504;28;20053;-52
2022/08/12 01:11:50;;;;;;;8.45;4.72;;;;;;;22.77;56.43;102098.69;4998657;28;20098;-53
2022/08/12 01:14:18;;;;;;;9.65;4.18;;;;;;;22.76;56.61;102099.59;4995814;28;20717;-52
2022/08/12 01:16:45;;;;;;;7.18;4.50;;;;;;;22.75;56.40;102098.72;5008164;28;20079;-53
2022/08/12 01:19:24;;;;;;;8.82;4.82;;;;;;;22.68;57.19;102113.00;4988729;28;20107;-48
2022/08/12 01:22:27;;;;;;;11.75;4.57;;;;;;;22.69;56.70;102106.75;5004084;28;20112;-53
2022/08/12 01:25:18;;;;;;;8.18;5.07;;;;;;;22.43;58.34;102109.00;5010380;28;20041;-53
2022/08/12 01:27:45;;;;;;;6.82;4.30;;;;;;;22.48;57.65;102102.69;4997786;28;20079;-52
2022/08/12 01:30:25;;;;;;;7.85;4.85;;;;;;;22.41;57.74;102103.69;4995863;28;20476;-50
2022/08/12 01:33:17;;;;;;;7.95;4.60;;;;;;;22.43;58.71;102098.38;4970745;28;20045;-52
2022/08/12 01:35:57;;;;;;;7.97;4.90;;;;;;;22.43;58.31;102096.59;4995793;28;21231;-53
2022/08/12 01:38:24;;;;;;;7.95;5.10;;;;;;;22.29;58.61;102098.56;4990276;28;20041;-52
2022/08/12 01:40:51;;;;;;;8.65;4.97;;;;;;;22.29;58.65;102103.00;4998993;28;20134;-51
2022/08/12 01:43:23;;;;;;;8.88;4.80;;;;;;;22.12;59.65;102100.63;5007353;28;20047;-52
2022/08/12 01:46:11;;;;;;;10.68;4.80;;;;;;;22.05;59.55;102099.81;5005176;28;20041;-53
2022/08/12 01:49:14;;;;;;;7.00;4.70;;;;;;;22.02;59.94;102097.19;4990323;28;20471;-54
2022/08/12 01:51:42;;;;;;;9.35;5.15;;;;;;;21.91;59.90;102091.13;5003960;28;20039;-52
2022/08/12 01:54:14;;;;;;;6.88;4.95;;;;;;;21.94;59.48;102095.53;4973106;28;20235;-52
2022/08/12 01:57:01;;;;;;;9.02;5.35;;;;;;;21.95;59.68;102092.00;4994073;28;20041;-53
2022/08/12 01:59:45;;;;;;;7.10;5.38;;;;;;;21.99;59.42;102089.28;5009620;28;20040;-55
2022/08/12 02:02:15;;;;;;;6.88;5.05;;;;;;;22.08;58.93;102083.84;4979255;28;20037;-53
2022/08/12 02:11:16;;;;;;;7.32;5.60;;;;;;;22.19;57.33;102070.41;5006570;28;20166;-52
2022/08/12 02:14:09;;;;;;;9.45;5.40;;;;;;;22.41;57.22;102074.47;4986413;28;20049;-54
2022/08/12 02:16:44;;;;;;;9.35;5.30;;;;;;;22.51;56.56;102078.72;5002232;28;20057;-52
2022/08/12 02:19:20;;;;;;;7.13;4.50;;;;;;;22.54;56.40;102070.69;5006647;28;20132;-52
2022/08/12 02:22:07;;;;;;;8.20;5.47;;;;;;;22.57;56.16;102073.28;5006698;28;20040;-51
2022/08/12 02:24:36;;;;;;;7.22;5.55;;;;;;;22.57;56.16;102070.63;4988136;28;20128;-52
2022/08/12 02:27:04;;;;;;;8.50;5.40;;;;;;;22.57;56.10;102064.44;4989453;28;20051;-54
2022/08/12 02:29:29;;;;;;;9.23;5.40;;;;;;;22.55;56.19;102087.53;5008846;28;20088;-54
2022/08/12 02:32:00;;;;;;;8.48;5.57;;;;;;;22.41;56.37;102078.91;4990293;28;20099;-54
2022/08/12 02:34:27;;;;;;;6.72;5.60;;;;;;;22.50;56.11;102063.69;4977067;28;20650;-53
2022/08/12 02:36:55;;;;;;;9.75;5.90;;;;;;;22.39;56.34;102067.41;5009207;28;20534;-54
2022/08/12 02:39:52;;;;;;;9.07;5.38;;;;;;;22.55;55.74;102063.59;5006874;28;20128;-53
2022/08/12 02:42:23;;;;;;;9.10;5.90;;;;;;;22.33;56.94;102067.50;4977278;28;20454;-55
2022/08/12 02:44:54;;;;;;;8.82;5.80;;;;;;;22.47;56.27;102060.19;5009531;28;20895;-54
2022/08/12 02:47:26;;;;;;;8.68;5.90;;;;;;;22.46;56.46;102058.44;4999329;28;20052;-51
2022/08/12 02:49:55;;;;;;;9.20;6.10;;;;;;;22.39;56.33;102059.44;5010980;28;20036;-55
2022/08/12 02:52:22;;;;;;;8.93;5.70;;;;;;;22.49;55.88;102053.97;4995173;28;22583;-54
2022/08/12 02:54:54;;;;;;;10.13;6.30;;;;;;;22.45;56.55;102051.38;5010940;28;20613;-53
2022/08/12 02:57:21;;;;;;;8.98;5.70;;;;;;;22.50;56.06;102050.41;5016009;28;20042;-54
2022/08/12 02:59:51;;;;;;;8.80;5.65;;;;;;;22.55;56.23;102052.97;5005222;28;20140;-54
2022/08/12 03:02:55;;;;;;;8.40;5.57;;;;;;;22.58;56.30;102055.56;4970282;28;20661;-55
2022/08/12 03:05:22;;;;;;;;;;;;;;;22.42;57.03;102046.13;4973593;28;20091;-53
2022/08/12 03:07:52;;;;;;;8.20;6.05;;;;;;;22.42;57.02;102047.00;4989663;28;19928;-54
2022/08/12 03:10:23;;;;;;;11.75;6.32;;;;;;;22.34;57.62;102048.00;4995511;28;20251;-53
2022/08/12 03:12:56;;;;;;;9.63;6.30;;;;;;;22.29;57.76;102048.09;5010303;28;20041;-55
2022/08/12 03:15:26;;;;;;;12.00;6.25;;;;;;;22.27;57.64;102047.22;5011158;28;20127;-54
2022/08/12 03:18:18;;;;;;;9.70;6.50;;;;;;;22.18;58.23;102045.63;5013090;28;20035;-52
2022/08/12 03:20:45;;;;;;;9.35;6.30;;;;;;;22.04;58.80;102039.63;4983586;28;20040;-52
2022/08/12 03:23:12;;;;;;;8.80;6.47;;;;;;;22.15;58.41;102043.00;5008598;28;20567;-53
2022/08/12 03:25:40;;;;;;;7.00;5.75;;;;;;;22.30;57.69;102041.00;4999065;28;20045;-53
2022/08/12 03:28:12;;;;;;;11.55;6.28;;;;;;;22.19;58.17;102042.06;4993829;28;20903;-52
2022/08/12 03:30:43;;;;;;;9.02;5.95;;;;;;;22.26;58.03;102046.34;4986355;28;20082;-54
2022/08/12 03:33:12;;;;;;;8.10;6.38;;;;;;;22.16;58.51;102041.22;4999228;28;20029;-53
2022/08/12 03:35:46;;;;;;;9.93;6.75;;;;;;;22.09;58.88;102044.88;4992325;28;21079;-54
2022/08/12 03:38:14;;;;;;;;;;;;;;;22.13;58.76;102041.28;4979615;28;20037;-56
2022/08/12 04:01:11;;;;;;;10.30;6.50;;;;;;;21.83;59.53;102026.66;5009238;28;20143;-53
2022/08/12 04:03:51;;;;;;;10.25;6.93;;;;;;;21.66;60.29;102042.81;5011620;28;20141;-53
2022/08/12 04:06:27;;;;;;;11.93;6.70;;;;;;;21.63;60.64;102029.59;4984289;28;20109;-52
2022/08/12 04:08:57;;;;;;;8.35;6.40;;;;;;;21.78;59.86;102034.69;5006005;28;20045;-54
2022/08/12 04:14:12;;;;;;;8.75;6.53;;;;;;;21.77;59.87;102029.41;4999016;28;20560;-53
2022/08/12 04:16:38;;;;;;;12.43;6.53;;;;;;;21.76;59.80;102039.16;5001231;28;20041;-52
2022/08/12 04:19:05;;;;;;;9.48;6.18;;;;;;;21.76;59.80;102030.31;4991460;28;20033;-54
2022/08/12 04:21:31;;;;;;;9.27;6.50;;;;;;;21.84;59.16;102026.63;4995756;28;20167;-54
2022/08/12 04:24:01;;;;;;;11.05;6.18;;;;;;;21.83;59.46;102027.53;5006035;28;20591;-52
2022/08/12 04:26:27;;;;;;;8.07;5.88;;;;;;;21.86;59.31;102021.31;5008067;28;20053;-53
2022/08/12 04:28:57;;;;;;;7.68;6.25;;;;;;;21.89;59.24;102026.59;4976787;28;20330;-51
2022/08/12 04:31:44;;;;;;;10.73;6.82;;;;;;;21.72;59.70;102028.56;5002912;28;20159;-51
2022/08/12 04:34:13;;;;;;;10.20;6.55;;;;;;;21.76;59.67;102035.63;4975759;28;20087;-52
2022/08/12 04:36:40;;;;;;;8.75;6.50;;;;;;;21.80;59.51;102018.75;4996338;28;20152;-53
2022/08/12 04:39:07;;;;;;;9.75;5.75;;;;;;;21.90;59.22;102038.94;4990450;28;20496;-55
2022/08/12 04:41:36;;;;;;;11.13;6.30;;;;;;;21.91;59.00;102032.72;5007964;28;20411;-51
2022/08/12 04:44:02;;;;;;;11.63;6.78;;;;;;;21.81;59.95;102032.00;5000891;28;20140;-52
2022/08/12 04:46:28;;;;;;;9.90;6.22;;;;;;;21.92;59.21;102034.47;4989945;28;20051;-53
2022/08/12 04:48:53;;;;;;;8.98;6.40;;;;;;;21.92;59.42;102029.16;5002449;28;20123;-52
2022/08/12 04:51:21;;;;;;;7.63;6.72;;;;;;;21.77;60.27;102027.63;4991565;28;20040;-50
2022/08/12 04:53:47;;;;;;;9.82;6.60;;;;;;;21.64;61.07;102041.97;4977228;28;20040;-54
2022/08/12 04:56:14;;;;;;;9.55;6.82;;;;;;;21.60;60.70;102047.34;4990596;28;20068;-53
2022/08/12 04:58:43;;;;;;;10.57;7.00;;;;;;;21.64;60.67;102047.28;5001415;28;20048;-52
2022/08/12 05:01:10;;;;;;;9.02;6.18;;;;;;;21.92;59.40;102042.44;4987525;28;20049;-53
2022/08/12 05:03:36;;;;;;;7.53;5.60;;;;;;;22.00;59.24;102042.38;4998521;28;20844;-53
2022/08/12 05:06:03;;;;;;;7.72;6.00;;;;;;;22.05;59.22;102043.19;4999850;28;20715;-52
2022/08/12 05:08:29;;;;;;;8.45;6.18;;;;;;;21.94;59.98;102042.44;4989136;28;20129;-52
2022/08/12 05:10:55;;;;;;;9.13;5.75;;;;;;;22.04;59.38;102030.78;5005232;28;20962;-55
2022/08/12 05:13:28;;;;;;;12.43;6.10;;;;;;;22.10;59.10;102034.22;5008482;28;20049;-54
2022/08/12 05:15:53;;;;;;;8.38;6.05;;;;;;;22.16;58.78;102038.56;5014660;28;20052;-53
2022/08/12 05:18:20;;;;;;;8.45;6.30;;;;;;;22.24;58.46;102042.88;4985143;28;20080;-50
2022/08/12 05:20:47;;;;;;;9.15;6.13;;;;;;;22.35;58.12;102033.84;4990879;28;20842;-53
2022/08/12 05:23:18;;;;;;;13.25;6.50;;;;;;;22.30;58.56;102038.34;5010318;28;20120;-52
2022/08/12 05:25:49;;;;;;;9.20;6.43;;;;;;;22.39;58.31;102046.16;4982814;28;20036;-50
2022/08/12 05:28:15;;;;;;;11.30;6.95;;;;;;;22.44;57.84;102049.63;4997014;28;20350;-51
2022/08/12 05:30:42;;;;;;;8.13;6.35;;;;;;;22.53;57.71;102046.81;4976690;28;20045;-53
2022/08/12 05:33:09;;;;;;;8.02;6.38;;;;;;;22.50;57.86;102052.19;4994257;28;20416;-52
2022/08/12 05:35:41;;;;;;;11.23;6.43;;;;;;;22.59;57.70;102042.25;5007266;28;20029;-50
2022/08/12 05:41:17;;;;;;;10.48;6.20;;;;;;;23.02;56.85;102046.81;5004840;28;20043;-52
2022/08/12 05:43:44;;;;;;;9.95;6.75;;;;;;;22.94;56.52;102046.06;4997904;28;20386;-51
2022/08/12 05:46:16;;;;;;;9.27;6.38;;;;;;;23.11;56.41;102049.31;4992829;28;20304;-55
2022/08/12 05:48:42;;;;;;;8.55;6.43;;;;;;;23.09;56.75;102053.75;5003750;28;20047;-54
2022/08/12 05:51:10;;;;;;;11.48;6.10;;;;;;;23.13;56.54;102054.56;4991841;28;20055;-50
2022/08/12 05:53:37;;;;;;;11.13;6.18;;;;;;;23.12;56.39;102055.47;5004198;28;20068;-52
2022/08/12 05:56:21;;;;;;;8.35;5.90;;;;;;;22.97;57.12;102051.34;4980464;28;20047;-51
2022/08/12 05:58:48;;;;;;;10.80;6.70;;;;;;;22.81;56.77;102056.06;4992318;28;20052;-53
2022/08/12 06:01:14;;;;;;;10.82;6.55;;;;;;;23.20;56.14;102058.88;4980854;28;20085;-55
2022/08/12 06:03:43;;;;;;;10.02;6.70;;;;;;;22.84;57.13;102053.34;4979492;28;20133;-54
2022/08/12 06:06:38;;;;;;;9.15;6.60;;;;;;;23.03;56.49;102054.75;5001079;28;20041;-52
2022/08/12 06:09:24;;;;;;;11.23;6.43;;;;;;;23.18;55.72;102050.91;4983276;28;21679;-51
2022/08/12 06:11:50;;;;;;;9.38;6.07;;;;;;;23.45;54.69;102045.03;4985626;28;20660;-51
2022/08/12 06:14:15;;;;;;;10.38;5.70;;;;;;;23.76;53.81;102045.25;5006294;28;20855;-54
2022/08/12 06:16:42;;;;;;;11.77;5.90;;;;;;;23.78;53.90;102048.78;5000535;28;20037;-49
2022/08/12 06:19:09;;;;;;;8.70;5.82;;;;;;;24.73;50.81;102049.13;5009762;28;20033;-52
2022/08/12 06:21:36;;;;;;;9.20;5.55;;;;;;;26.33;47.33;102047.94;5006135;28;20048;-52
2022/08/12 06:24:02;;;;;;;6.18;4.55;;;;;;;27.66;44.24;102047.56;5001168;28;20740;-53
2022/08/12 06:26:28;;;;;;;7.25;4.57;;;;;;;28.89;41.64;102047.81;4996678;28;20048;-55
2022/08/12 06:29:02;;;;;;;7.63;4.60;;;;;;;29.58;39.84;102043.72;5006716;28;20707;-51
2022/08/12 06:31:27;;;;;;;8.75;4.80;;;;;;;29.21;40.33;102043.69;5010072;28;20033;-50
2022/08/12 06:34:05;;;;;;;12.50;4.55;;;;;;;30.35;38.40;102030.09;5010748;28;20040;-51
2022/08/12 06:36:33;;;;;;;6.65;4.03;;;;;;;30.93;36.54;102034.19;4979169;28;20593;-54
2022/08/12 06:38:59;;;;;;;6.20;4.00;;;;;;;31.64;35.75;102032.16;5011180;28;20037;-53
2022/08/12 06:44:19;;;;;;;7.85;4.57;;;;;;;30.10;36.73;102038.53;4993247;28;20052;-52
2022/08/12 06:46:45;;;;;;;7.88;4.32;;;;;;;29.39;38.70;102041.06;5013726;28;20518;-50
2022/08/12 06:49:12;;;;;;;6.75;4.13;;;;;;;29.59;38.87;102037.41;4987027;28;20037;-52
2022/08/12 06:51:37;;;;;;;8.98;4.00;;;;;;;30.78;37.86;102035.03;5004673;28;20840;-53
2022/08/12 06:54:03;;;;;;;11.75;4.10;;;;;;;31.44;36.04;102038.63;5007295;28;20492;-52
2022/08/12 06:56:29;;;;;;;10.90;4.22;;;;;;;31.71;34.06;102044.34;4996594;28;20049;-52
2022/08/12 06:58:56;;;;;;;8.10;4.72;;;;;;;29.87;36.87;102033.38;5009285;28;20063;-54
2022/08/12 07:01:24;;;;;;;10.57;4.53;;;;;;;29.79;37.08;102040.00;5005158;28;20123;-50
2022/08/12 07:03:51;;;;;;;7.05;4.85;;;;;;;29.88;37.34;102040.50;5001440;28;20064;-51
2022/08/12 07:06:17;;;;;;;12.15;5.20;;;;;;;30.03;36.67;102035.28;5001186;28;20802;-53
2022/08/12 07:08:44;;;;;;;9.95;4.53;;;;;;;30.72;36.16;102032.66;5002448;28;20040;-51
2022/08/12 07:11:12;;;;;;;11.40;4.32;;;;;;;31.32;36.40;102031.22;5022407;28;20786;-50
2022/08/12 07:13:51;;;;;;;8.93;5.15;;;;;;;31.31;34.99;102032.16;4995899;28;20056;-54
2022/08/12 07:16:19;;;;;;;10.32;4.63;;;;;;;30.93;34.96;102030.63;4987402;28;20193;-54
2022/08/12 07:18:49;;;;;;;9.05;4.80;;;;;;;31.48;34.11;102033.91;4981527;28;20040;-54
2022/08/12 07:21:16;;;;;;;9.38;4.40;;;;;;;31.98;34.21;102031.06;5011664;28;20036;-52
2022/08/12 07:23:42;;;;;;;9.88;5.30;;;;;;;31.10;34.69;102037.88;4996759;28;20200;-53
2022/08/12 07:26:14;;;;;;;8.20;4.50;;;;;;;31.81;34.48;102029.34;5000868;28;20266;-55
2022/08/12 07:28:42;;;;;;;9.03;4.70;;;;;;;31.80;34.61;102021.34;5001766;28;20914;-55
2022/08/12 07:31:11;;;;;;;7.93;4.85;;;;;;;31.47;33.27;102034.03;5009373;28;20128;-54
2022/08/12 07:33:39;;;;;;;6.45;4.65;;;;;;;31.18;35.67;102032.91;5005353;28;20048;-51
2022/08/12 07:36:09;;;;;;;10.73;5.30;;;;;;;32.10;32.89;102035.75;4978425;28;20045;-52
2022/08/12 07:38:34;;;;;;;9.40;4.80;;;;;;;32.69;33.45;102042.19;5002967;28;20037;-51
2022/08/12 07:41:16;;;;;;;12.98;4.90;;;;;;;32.65;32.26;102040.59;5004182;28;20037;-53
2022/08/12 07:43:56;;;;;;;8.13;4.32;;;;;;;33.38;31.44;102044.19;4987955;28;20297;-54
2022/08/12 07:46:37;;;;;;;7.78;5.00;;;;;;;32.76;31.27;102042.66;4996416;28;20729;-56
2022/08/12 07:49:06;;;;;;;7.10;4.20;;;;;;;32.66;31.93;102045.06;4969706;28;20511;-53
2022/08/12 07:51:35;;;;;;;6.75;4.90;;;;;;;32.01;33.28;102038.13;4991849;28;20049;-51
2022/08/12 07:54:07;;;;;;;8.60;5.25;;;;;;;31.96;33.40;102042.94;4995540;28;20048;-53
2022/08/12 07:56:35;;;;;;;9.00;4.75;;;;;;;31.86;34.27;102039.00;4993505;28;20712;-51
2022/08/12 07:59:01;;;;;;;8.98;5.00;;;;;;;31.42;34.43;102047.72;5005919;28;20099;-56
2022/08/12 08:01:28;;;;;;;7.30;4.90;;;;;;;31.49;34.16;102049.13;4996146;28;20579;-55
2022/08/12 08:06:47;;;;;;;7.32;4.65;;;;;;;32.08;33.55;102042.22;4984360;28;20066;-52
2022/08/12 08:09:15;;;;;;;9.38;5.05;;;;;;;32.01;33.33;102039.00;4980635;28;20813;-51
2022/08/12 08:14:27;;;;;;;6.70;4.70;;;;;;;32.53;32.15;102042.22;4981776;28;20059;-53
2022/08/12 08:16:55;;;;;;;9.07;4.80;;;;;;;32.01;32.45;102044.41;4997497;28;20048;-57
2022/08/12 08:19:25;;;;;;;10.43;4.65;;;;;;;32.68;31.28;102045.00;4991366;28;20520;-54
2022/08/12 08:21:55;;;;;;;9.30;5.13;;;;;;;31.79;33.47;102039.34;5005903;28;20033;-55
2022/08/12 08:24:23;;;;;;;8.05;4.95;;;;;;;30.99;33.57;102041.97;4975725;28;20862;-56
2022/08/12 08:26:55;;;;;;;8.48;4.55;;;;;;;31.20;34.39;102039.09;4984020;28;20033;-57
2022/08/12 08:29:25;;;;;;;13.88;4.82;;;;;;;31.10;33.18;102044.13;5002816;28;20040;-56
2022/08/12 08:31:54;;;;;;;11.77;4.85;;;;;;;31.33;35.10;102045.56;5004396;28;20124;-57
2022/08/12 08:34:21;;;;;;;8.65;4.70;;;;;;;31.08;35.27;102042.47;5005864;28;20139;-57
2022/08/12 08:36:47;;;;;;;8.48;5.30;;;;;;;31.15;33.99;102041.19;4990760;28;20543;-53
2022/08/12 08:39:20;;;;;;;12.63;5.00;;;;;;;30.75;35.34;102040.56;5001840;28;20036;-58
2022/08/12 08:44:49;;;;;;;8.57;4.93;;;;;;;30.92;34.33;102037.84;4993229;28;20091;-56
2022/08/12 08:47:15;;;;;;;7.25;4.90;;;;;;;30.62;33.81;102042.16;4969298;28;20183;-55
2022/08/12 08:49:40;;;;;;;14.48;4.90;;;;;;;30.42;37.30;102048.56;4986698;28;20037;-57
2022/08/12 08:52:10;;;;;;;6.57;4.35;;;;;;;30.80;33.27;102041.19;5002948;28;20059;-57
2022/08/12 08:54:37;;;;;;;12.13;5.10;;;;;;;30.48;33.92;102041.97;4958579;28;20576;-55
2022/08/12 08:57:06;;;;;;;11.02;4.40;;;;;;;30.91;34.07;102037.94;4963269;28;20073;-56
2022/08/12 08:59:32;;;;;;;10.30;4.25;;;;;;;30.85;33.84;102032.88;4999992;28;20123;-55
2022/08/12 09:01:57;;;;;;;7.38;4.78;;;;;;;30.66;33.34;102033.00;4996709;28;20033;-54
2022/08/12 09:04:26;;;;;;;10.30;5.22;;;;;;;30.13;35.01;102039.25;4965479;28;20094;-56
2022/08/12 09:06:57;;;;;;;8.27;4.60;;;;;;;30.85;34.80;102031.06;5009387;28;20029;-57
2022/08/12 09:09:26;;;;;;;9.23;5.10;;;;;;;30.76;35.50;102031.53;4992873;28;20103;-54
2022/08/12 09:14:36;;;;;;;10.15;4.68;;;;;;;31.01;34.81;102042.75;5002169;28;21513;-58
2022/08/12 09:17:04;;;;;;;8.25;4.65;;;;;;;30.75;34.47;102035.19;4973102;28;20036;-56
2022/08/12 09:19:29;;;;;;;7.30;4.38;;;;;;;30.86;36.75;102035.47;5005369;28;20051;-54
2022/08/12 09:21:59;;;;;;;10.30;4.82;;;;;;;30.30;34.24;102029.47;4987003;28;20037;-54
2022/08/12 09:24:39;;;;;;;15.18;5.15;;;;;;;30.50;34.74;102030.19;5009801;28;20099;-54
2022/08/12 09:27:05;;;;;;;10.90;4.50;;;;;;;30.53;34.92;102038.13;4993724;28;20489;-56
2022/08/12 09:29:32;;;;;;;10.63;4.90;;;;;;;30.94;34.71;102032.38;4994060;28;20065;-55
2022/08/12 09:31:59;;;;;;;10.77;4.80;;;;;;;30.97;34.18;102025.03;4990755;28;20036;-52
2022/08/12 09:34:28;;;;;;;10.43;4.28;;;;;;;31.51;33.34;102028.38;4993665;28;20107;-56
2022/08/12 09:36:54;;;;;;;7.05;4.40;;;;;;;31.60;34.68;102027.00;4987678;28;20037;-55
2022/08/12 09:39:23;;;;;;;9.88;4.38;;;;;;;31.79;33.42;102022.31;5004493;28;20115;-55
2022/08/12 09:45:19;;;;;;;7.97;4.45;;;;;;;31.80;33.94;102024.03;5004707;28;20265;-55
2022/08/12 09:47:19;;;;;;;8.13;4.35;;;;;;;32.06;32.62;102023.41;4974509;28;20098;-58
2022/08/12 09:49:52;;;;;;;8.85;4.05;;;;;;;32.33;33.14;102020.06;4976718;28;20040;-57
2022/08/12 09:52:23;;;;;;;9.38;4.65;;;;;;;31.90;31.46;102014.47;4994840;28;20053;-56
2022/08/12 09:54:52;;;;;;;7.05;4.60;;;;;;;31.57;32.85;102002.88;4995229;28;20446;-53
2022/08/12 09:57:18;;;;;;;6.28;4.53;;;;;;;32.19;32.80;102008.28;4987891;28;20624;-54
2022/08/12 09:59:44;;;;;;;12.90;4.53;;;;;;;32.60;33.13;102015.72;4991353;28;20045;-56
2022/08/12 10:02:11;;;;;;;8.80;4.50;;;;;;;32.54;32.51;102007.97;4994857;28;20035;-55
2022/08/12 10:04:41;;;;;;;7.18;4.35;;;;;;;32.70;32.11;102007.94;5003077;28;20056;-53
2022/08/12 10:07:07;;;;;;;7.60;4.10;;;;;;;32.79;32.42;101993.88;4976084;28;20551;-55
2022/08/12 10:09:33;;;;;;;7.72;4.15;;;;;;;32.62;30.80;101998.47;5003416;28;20048;-56
2022/08/12 10:14:46;;;;;;;12.02;4.53;;;;;;;32.52;30.31;101986.47;4990153;28;21033;-52
2022/08/12 10:17:12;;;;;;;8.10;4.40;;;;;;;32.11;31.57;101996.16;4999415;28;20040;-53
2022/08/12 10:19:47;;;;;;;8.95;4.07;;;;;;;32.50;30.86;101987.53;5006449;28;20052;-55
2022/08/12 10:22:14;;;;;;;11.32;4.32;;;;;;;32.30;30.90;101990.56;5013397;28;20107;-56
2022/08/12 10:24:40;;;;;;;14.00;4.50;;;;;;;32.48;30.30;101993.03;5004504;28;20037;-55
2022/08/12 10:30:13;;;;;;;7.75;4.30;;;;;;;32.63;29.09;101983.13;4999851;28;20071;-57
2022/08/12 10:32:39;;;;;;;10.80;4.30;;;;;;;32.81;28.56;101979.31;4988961;28;20517;-56
2022/08/12 10:35:04;;;;;;;7.75;3.80;;;;;;;32.98;29.40;101984.53;4984774;28;20029;-57
2022/08/12 10:37:30;;;;;;;8.80;4.15;;;;;;;33.14;29.50;101980.84;5001148;28;20509;-56
2022/08/12 10:39:55;;;;;;;11.60;4.15;;;;;;;33.83;29.31;101969.16;5000965;28;20045;-57
2022/08/12 10:45:08;;;;;;;13.50;4.05;;;;;;;33.20;28.92;101970.53;4991138;28;20601;-54
2022/08/12 10:47:35;;;;;;;8.77;4.00;;;;;;;32.93;27.90;101966.88;4997180;28;20041;-59
2022/08/12 10:50:04;;;;;;;10.48;4.20;;;;;;;33.18;27.32;101964.34;5003704;28;20052;-54
2022/08/12 10:52:35;;;;;;;7.93;3.67;;;;;;;33.99;26.11;101959.91;5011248;28;20399;-56
2022/08/12 10:55:00;;;;;;;8.80;3.88;;;;;;;33.82;26.56;101965.59;5003654;28;20049;-54
2022/08/12 10:57:26;;;;;;;10.93;4.20;;;;;;;33.97;27.09;101955.59;4987171;28;20432;-53
2022/08/12 10:59:56;;;;;;;13.20;3.75;;;;;;;33.62;27.22;101963.28;5001034;28;20045;-53
2022/08/12 11:02:26;;;;;;;7.22;3.70;;;;;;;34.00;25.91;101949.94;5005664;28;20041;-55
2022/08/12 11:04:58;;;;;;;8.75;3.97;;;;;;;33.80;28.12;101949.44;5005435;28;20051;-55
2022/08/12 11:07:25;;;;;;;11.80;4.07;;;;;;;33.75;28.77;101948.03;5001043;28;20561;-53
2022/08/12 11:09:53;;;;;;;8.93;3.45;;;;;;;33.52;25.15;101948.66;5003966;28;20124;-58
2022/08/12 11:12:18;;;;;;;7.70;3.50;;;;;;;33.54;24.90;101942.19;4985377;28;20038;-56
2022/08/12 11:14:44;;;;;;;11.68;3.67;;;;;;;33.65;23.87;101952.28;5012761;28;20032;-56
2022/08/12 11:17:12;;;;;;;10.30;3.53;;;;;;;33.69;24.10;101941.16;4994089;28;20274;-56
2022/08/12 11:19:42;;;;;;;9.43;3.50;;;;;;;34.09;24.06;101935.81;4997410;28;20037;-56
2022/08/12 11:22:09;;;;;;;5.95;3.08;;;;;;;34.48;22.47;101932.19;4996785;28;20478;-54
2022/08/12 11:24:35;;;;;;;5.22;3.22;;;;;;;34.33;22.12;101925.16;5001538;28;20609;-57
2022/08/12 11:27:05;;;;;;;5.05;3.50;;;;;;;34.47;23.46;101923.19;5001258;28;20094;-56
2022/08/12 11:29:30;;;;;;;9.07;3.50;;;;;;;33.87;24.16;101921.97;4992919;28;20363;-54
2022/08/12 11:31:56;;;;;;;5.97;3.40;;;;;;;34.30;22.65;101919.94;4981500;28;20490;-54
2022/08/12 11:34:22;;;;;;;4.88;3.60;;;;;;;34.65;22.52;101921.00;5000925;28;20064;-54
2022/08/12 11:36:56;;;;;;;9.95;3.80;;;;;;;34.80;23.26;101911.84;5009113;28;20495;-54
2022/08/12 11:39:22;;;;;;;7.85;3.78;;;;;;;35.34;22.54;101903.38;4981567;28;20549;-52
2022/08/12 11:41:48;;;;;;;5.35;3.50;;;;;;;35.08;22.16;101901.69;5009853;28;20036;-55
2022/08/12 11:44:14;;;;;;;5.43;3.30;;;;;;;34.46;22.55;101899.78;5009999;28;20115;-57
2022/08/12 11:46:40;;;;;;;7.57;3.58;;;;;;;33.47;23.14;101902.13;5005663;28;20176;-53
2022/08/12 11:49:10;;;;;;;8.52;3.35;;;;;;;33.33;22.29;101898.50;5006350;28;20124;-55
2022/08/12 11:51:37;;;;;;;12.48;3.92;;;;;;;33.87;22.72;101895.81;5002815;28;21172;-56
2022/08/12 11:54:04;;;;;;;6.75;3.83;;;;;;;33.82;23.16;101906.06;5000923;28;20041;-52
2022/08/12 11:56:30;;;;;;;10.07;4.05;;;;;;;33.83;22.58;101902.41;4992996;28;20029;-56
2022/08/12 11:58:56;;;;;;;13.07;3.80;;;;;;;34.07;21.92;101895.31;5001827;28;20082;-56
2022/08/12 12:01:22;;;;;;;7.03;3.83;;;;;;;33.47;23.38;101891.31;4996842;28;20537;-57
2022/08/12 12:03:48;;;;;;;9.07;3.90;;;;;;;33.77;23.29;101900.13;5009400;28;20040;-58
2022/08/12 12:06:14;;;;;;;10.43;3.70;;;;;;;33.91;21.86;101897.34;5011274;28;20041;-57
2022/08/12 12:08:40;;;;;;;4.65;3.60;;;;;;;34.29;22.29;101888.41;4986072;28;20064;-59
2022/08/12 12:11:06;;;;;;;7.05;4.00;;;;;;;33.78;22.20;101896.44;5009215;28;20116;-57
2022/08/12 12:13:31;;;;;;;9.93;3.75;;;;;;;34.02;23.97;101891.19;4994898;28;20041;-56
2022/08/12 12:15:57;;;;;;;10.25;3.97;;;;;;;33.95;23.54;101895.28;4967947;28;20175;-58
2022/08/12 12:18:27;;;;;;;10.35;3.70;;;;;;;33.91;22.36;101888.34;4987996;28;20048;-57
2022/08/12 12:20:56;;;;;;;7.53;3.70;;;;;;;34.29;22.87;101886.56;5005119;28;20064;-56
2022/08/12 12:23:25;;;;;;;7.30;3.90;;;;;;;34.25;22.37;101881.50;4997625;28;20041;-58
2022/08/12 12:25:51;;;;;;;10.50;3.72;;;;;;;34.30;21.93;101874.78;4976932;28;20151;-58
2022/08/12 12:28:16;;;;;;;7.75;3.80;;;;;;;34.23;23.29;101876.19;5003491;28;20056;-58
2022/08/12 12:30:42;;;;;;;7.28;4.00;;;;;;;34.37;22.20;101872.50;4999634;28;20052;-55
2022/08/12 12:33:09;;;;;;;9.02;3.58;;;;;;;34.30;22.49;101869.38;4997669;28;20037;-56
2022/08/12 12:35:35;;;;;;;5.35;3.60;;;;;;;33.98;22.85;101868.88;5002742;28;21714;-56
2022/08/12 12:38:08;;;;;;;8.23;3.90;;;;;;;33.78;23.52;101875.66;5000987;28;20045;-55
2022/08/12 12:40:35;;;;;;;7.30;3.75;;;;;;;33.85;23.68;101872.56;5008577;28;20041;-56
2022/08/12 12:43:02;;;;;;;5.47;3.40;;;;;;;34.01;21.88;101865.09;4998050;28;20041;-56
2022/08/12 12:45:29;;;;;;;7.65;3.90;;;;;;;33.45;22.16;101866.22;4972629;28;20746;-55
2022/08/12 12:47:55;;;;;;;7.32;3.63;;;;;;;33.64;21.98;101861.31;4994722;28;20039;-55
2022/08/12 12:50:22;;;;;;;9.65;3.80;;;;;;;34.03;21.58;101855.03;4990701;28;20287;-55
2022/08/12 12:52:56;;;;;;;7.63;3.70;;;;;;;33.39;22.20;101853.97;5007393;28;20037;-56
2022/08/12 12:55:24;;;;;;;6.45;3.58;;;;;;;33.83;21.40;101850.13;4996570;28;20382;-56
2022/08/12 12:57:50;;;;;;;9.75;3.60;;;;;;;33.33;21.39;101847.16;4998664;28;20052;-57
2022/08/12 13:00:17;;;;;;;6.97;3.67;;;;;;;33.27;21.70;101855.66;5002989;28;20102;-58
2022/08/12 13:02:51;;;;;;;13.73;3.80;;;;;;;33.56;21.26;101850.13;5000301;28;20128;-55
2022/08/12 13:05:24;;;;;;;8.65;3.67;;;;;;;33.73;21.99;101845.34;4997071;28;20029;-54
2022/08/12 13:07:50;;;;;;;8.60;3.80;;;;;;;33.89;21.78;101842.47;5006712;28;20069;-56
2022/08/12 13:10:15;;;;;;;8.32;3.80;;;;;;;33.57;21.05;101847.34;4979472;28;20133;-54
2022/08/12 13:12:41;;;;;;;6.30;3.47;;;;;;;33.74;20.54;101843.50;4979391;28;20045;-54
2022/08/12 13:15:16;;;;;;;8.50;3.90;;;;;;;33.66;21.40;101843.16;4985510;28;20032;-55
2022/08/12 13:17:48;;;;;;;5.32;3.65;;;;;;;34.04;21.27;101844.09;5014170;28;20923;-56
2022/08/12 13:20:15;;;;;;;5.50;3.88;;;;;;;33.88;21.57;101846.13;4974820;28;20057;-54
2022/08/12 13:22:41;;;;;;;7.65;3.65;;;;;;;34.49;20.87;101837.28;4994362;28;20272;-55
2022/08/12 13:25:10;;;;;;;10.45;4.30;;;;;;;33.94;21.76;101837.59;4994717;28;20411;-56
2022/08/12 13:27:46;;;;;;;7.53;4.10;;;;;;;34.18;23.38;101832.31;4970670;28;20636;-57